Time;durP1;ratioP1;P1;durP2;ratioP2;P2;SDS_P1;SDS_P2;PMS_P1;PMS_P2;Temp;Humidity;BMP_temperature;BMP_pressure;BME280_temperature;BME280_humidity;BME280_pressure;Samples;Min_cycle;Max_cycle;Signal;HPM_P1;HPM_P2
2022/06/15 00:02:06;;;;;;;;;;;;;;;28.53;38.17;94321.59;4986545;28;7331;-58
2022/06/15 00:04:33;;;;;;;;;;;;;;;28.54;38.31;94314.78;4894814;29;9456;-58
2022/06/15 00:07:00;;;;;;;;;;;;;;;28.56;38.32;94325.34;4896311;29;7047;-58
2022/06/15 00:09:27;;;;;;;;;;;;;;;28.56;37.95;94323.28;4911738;29;7255;-58
2022/06/15 00:11:53;;;;;;;;;;;;;;;28.55;37.91;94332.88;4885034;29;9165;-58
2022/06/15 00:14:23;;;;;;;;;;;;;;;28.54;38.16;94334.16;4899083;29;9429;-58
2022/06/15 00:16:50;;;;;;;;;;;;;;;28.54;37.95;94327.88;4910899;29;9005;-58
2022/06/15 00:19:16;;;;;;;;;;;;;;;28.53;38.28;94327.16;4893749;29;8986;-58
2022/06/15 00:21:44;;;;;;;;;;;;;;;28.56;38.17;94319.81;4894511;29;7069;-58
2022/06/15 00:24:11;;;;;;;;;;;;;;;28.53;37.72;94318.84;4911470;29;7347;-58
2022/06/15 00:26:41;;;;;;;;;;;;;;;28.49;38.23;94320.44;4910013;29;7591;-58
2022/06/15 00:29:11;;;;;;;;;;;;;;;28.49;38.24;94323.94;4912452;29;7074;-58
2022/06/15 00:31:37;;;;;;;;;;;;;;;28.51;38.18;94326.94;4896079;29;6994;-59
2022/06/15 00:34:03;;;;;;;;;;;;;;;28.54;38.30;94317.56;4895925;29;9641;-58
2022/06/15 00:36:31;;;;;;;;;;;;;;;28.54;38.26;94316.78;4946642;28;9108;-58
2022/06/15 00:38:58;;;;;;;;;;;;;;;28.55;38.15;94319.06;4969469;28;7236;-58
2022/06/15 00:41:33;;;;;;;;;;;;;;;28.54;38.21;94322.34;5034316;28;7048;-58
2022/06/15 00:44:21;;;;;;;;;;;;;;;28.52;38.23;94314.56;5036033;28;6996;-58
2022/06/15 00:46:59;;;;;;;;;;;;;;;28.52;38.15;94314.56;5039489;28;7184;-58
2022/06/15 00:49:37;;;;;;;;;;;;;;;28.53;37.93;94316.06;5065254;28;8047;-58
2022/06/15 00:52:10;;;;;;;;;;;;;;;28.54;37.92;94314.78;5050714;28;7122;-58
2022/06/15 00:54:37;;;;;;;;;;;;;;;28.51;38.16;94315.88;5033122;28;7333;-58
2022/06/15 00:57:09;;;;;;;;;;;;;;;28.54;38.30;94312.00;5054161;28;7084;-58
2022/06/15 00:59:52;;;;;;;;;;;;;;;28.54;38.17;94314.78;5074556;28;9540;-58
2022/06/15 01:02:36;;;;;;;;;;;;;;;28.53;38.08;94316.06;5069109;28;7227;-58
2022/06/15 01:05:09;;;;;;;;;;;;;;;28.54;38.18;94322.34;5050523;28;7259;-58
2022/06/15 01:08:10;;;;;;;;;;;;;;;28.53;38.23;94318.09;5061862;28;7306;-58
2022/06/15 01:10:54;;;;;;;;;;;;;;;28.50;38.22;94311.59;5053234;28;7447;-58
2022/06/15 01:13:39;;;;;;;;;;;;;;;28.52;38.21;94327.66;5064907;28;7186;-58
2022/06/15 01:16:22;;;;;;;;;;;;;;;28.50;38.02;94317.13;5050752;28;7288;-58
2022/06/15 01:19:10;;;;;;;;;;;;;;;28.51;38.28;94313.09;5042635;28;6993;-58
2022/06/15 01:22:17;;;;;;;;;;;;;;;28.48;38.28;94311.38;5064435;28;7331;-58
2022/06/15 01:25:31;;;;;;;;;;;;;;;28.48;38.37;94308.63;5062408;28;9036;-58
2022/06/15 01:28:26;;;;;;;;;;;;;;;28.49;38.04;94314.91;5051777;28;7191;-58
2022/06/15 01:31:01;;;;;;;;;;;;;;;28.48;38.36;94316.91;5046538;28;7372;-58
2022/06/15 01:33:48;;;;;;;;;;;;;;;28.47;38.07;94312.66;5031101;28;9114;-57
2022/06/15 01:36:24;;;;;;;;;;;;;;;28.48;37.77;94316.16;5037174;28;7240;-58
2022/06/15 01:39:17;;;;;;;;;;;;;;;28.46;38.34;94311.16;5049975;28;8771;-58
2022/06/15 01:42:03;;;;;;;;;;;;;;;28.47;38.43;94309.88;5055653;28;8745;-58
2022/06/15 01:45:11;;;;;;;;;;;;;;;28.47;38.16;94311.91;5073506;28;9001;-57
2022/06/15 01:47:41;;;;;;;;;;;;;;;28.45;38.25;94309.66;4987223;28;7255;-58
2022/06/15 01:50:39;;;;;;;;;;;;;;;28.44;38.33;94319.25;4991527;28;7282;-57
2022/06/15 01:53:29;;;;;;;;;;;;;;;28.45;38.28;94323.50;4987641;28;9392;-57
2022/06/15 01:56:33;;;;;;;;;;;;;;;28.44;38.43;94327.56;4980499;28;7386;-57
2022/06/15 01:59:15;;;;;;;;;;;;;;;28.43;38.10;94322.56;4992267;28;9206;-57
2022/06/15 02:02:08;;;;;;;;;;;;;;;28.41;38.26;94319.56;4989888;28;7142;-57
2022/06/15 02:05:27;;;;;;;;;;;;;;;28.39;38.48;94320.09;4990934;28;9447;-58
2022/06/15 02:08:10;;;;;;;;;;;;;;;28.38;38.41;94313.81;4972296;28;9060;-58
2022/06/15 02:10:49;;;;;;;;;;;;;;;28.39;38.20;94317.34;4960342;28;7004;-57
2022/06/15 02:13:25;;;;;;;;;;;;;;;28.40;38.31;94316.06;4971703;28;7165;-57
2022/06/15 02:15:59;;;;;;;;;;;;;;;28.39;38.35;94314.56;4970835;28;7266;-57
2022/06/15 02:18:30;;;;;;;;;;;;;;;28.40;38.34;94307.78;4964451;28;9131;-58
2022/06/15 02:21:06;;;;;;;;;;;;;;;28.38;38.38;94298.50;4954071;28;6856;-57
2022/06/15 02:23:36;;;;;;;;;;;;;;;28.38;38.21;94304.78;4968967;28;7174;-58
2022/06/15 02:26:07;;;;;;;;;;;;;;;28.38;38.31;94304.78;5007238;28;8187;-58
2022/06/15 02:28:37;;;;;;;;;;;;;;;28.36;38.67;94301.81;5010408;28;9126;-58
2022/06/15 02:31:16;;;;;;;;;;;;;;;28.35;38.38;94301.06;5014960;28;9079;-57
2022/06/15 02:34:05;;;;;;;;;;;;;;;28.34;38.45;94298.81;5007601;28;9368;-57
2022/06/15 02:36:32;;;;;;;;;;;;;;;28.33;38.60;94305.63;4999938;28;9103;-57
2022/06/15 02:39:11;;;;;;;;;;;;;;;28.32;38.28;94307.66;5013814;28;9123;-57
2022/06/15 02:41:56;;;;;;;;;;;;;;;28.33;38.37;94302.88;5016147;28;7100;-57
2022/06/15 02:44:33;;;;;;;;;;;;;;;28.32;38.52;94307.66;5046998;28;9094;-57
2022/06/15 02:46:59;;;;;;;;;;;;;;;28.31;38.27;94286.81;5034845;28;9218;-57
2022/06/15 02:49:41;;;;;;;;;;;;;;;28.33;38.39;94287.03;5068058;28;7246;-57
2022/06/15 02:52:22;;;;;;;;;;;;;;;28.33;38.59;94302.88;5024101;28;7237;-57
2022/06/15 02:54:55;;;;;;;;;;;;;;;28.32;38.52;94295.84;5039573;28;8935;-57
2022/06/15 02:57:24;;;;;;;;;;;;;;;28.31;38.53;94284.03;5034930;28;7347;-57
2022/06/15 02:59:55;;;;;;;;;;;;;;;28.29;38.47;94296.91;5052669;28;7211;-57
2022/06/15 03:02:21;;;;;;;;;;;;;;;28.27;38.26;94282.88;5063705;28;9248;-57
2022/06/15 03:04:48;;;;;;;;;;;;;;;28.25;38.55;94297.22;5042030;28;9131;-58
2022/06/15 03:07:15;;;;;;;;;;;;;;;28.26;38.80;94295.94;5056553;28;6963;-58
2022/06/15 03:09:41;;;;;;;;;;;;;;;28.26;38.62;94295.94;5051853;28;7557;-58
2022/06/15 03:12:10;;;;;;;;;;;;;;;28.25;38.56;94299.25;5058907;28;7487;-57
2022/06/15 03:14:38;;;;;;;;;;;;;;;28.24;38.81;94295.72;5071786;28;9022;-58
2022/06/15 03:17:34;;;;;;;;;;;;;;;28.25;38.34;94302.00;5061785;28;7615;-57
2022/06/15 03:20:08;;;;;;;;;;;;;;;28.23;38.83;94299.75;5043780;28;7019;-57
2022/06/15 03:22:42;;;;;;;;;;;;;;;28.23;39.05;94308.06;5054828;28;7424;-57
2022/06/15 03:25:22;;;;;;;;;;;;;;;28.24;38.00;94303.28;5071540;28;9242;-57
2022/06/15 03:27:54;;;;;;;;;;;;;;;28.23;38.78;94299.03;5047970;28;7245;-57
2022/06/15 03:30:23;;;;;;;;;;;;;;;28.23;38.51;94304.56;5049616;28;7246;-57
2022/06/15 03:33:47;;;;;;;;;;;;;;;28.24;38.50;94292.22;5048521;28;7240;-57
2022/06/15 03:36:30;;;;;;;;;;;;;;;28.22;38.88;94276.16;4963249;28;9488;-57
2022/06/15 03:39:13;;;;;;;;;;;;;;;28.21;38.36;94298.81;4974310;28;9297;-57
2022/06/15 03:41:48;;;;;;;;;;;;;;;28.22;38.64;94306.59;4972966;28;8710;-57
2022/06/15 03:44:15;;;;;;;;;;;;;;;28.22;38.64;94303.06;4976020;28;7238;-57
2022/06/15 03:46:50;;;;;;;;;;;;;;;28.20;38.58;94300.84;4969135;28;6981;-58
2022/06/15 03:49:18;;;;;;;;;;;;;;;28.20;38.90;94300.84;4982763;28;7240;-58
2022/06/15 03:51:54;;;;;;;;;;;;;;;28.21;39.04;94291.25;4972953;28;8765;-58
2022/06/15 03:54:58;;;;;;;;;;;;;;;28.22;38.76;94298.28;4994361;28;7354;-57
2022/06/15 03:57:55;;;;;;;;;;;;;;;28.22;38.78;94292.00;4935535;29;7226;-57
2022/06/15 04:00:25;;;;;;;;;;;;;;;28.20;38.60;94284.25;4917570;29;7035;-57
2022/06/15 04:02:54;;;;;;;;;;;;;;;28.18;38.58;94291.56;4948647;28;6981;-57
2022/06/15 04:05:35;;;;;;;;;;;;;;;28.14;38.86;94291.16;4940740;28;7431;-57
2022/06/15 04:08:39;;;;;;;;;;;;;;;28.15;38.89;94293.38;4986875;28;7788;-58
2022/06/15 04:14:03;;;;;;;;;;;;;;;28.17;38.63;94301.13;4994220;28;7273;-57
2022/06/15 04:16:29;;;;;;;;;;;;;;;28.16;38.62;94303.19;4995039;28;9219;-57
2022/06/15 04:18:56;;;;;;;;;;;;;;;28.15;38.44;94306.47;4993196;28;7517;-57
2022/06/15 04:21:36;;;;;;;;;;;;;;;28.16;38.54;94310.72;4994290;28;6994;-57
2022/06/15 04:24:02;;;;;;;;;;;;;;;28.16;38.45;94303.19;4977221;28;7240;-58
2022/06/15 04:26:59;;;;;;;;;;;;;;;28.17;38.65;94301.13;5009952;28;7207;-57
2022/06/15 04:29:28;;;;;;;;;;;;;;;28.17;38.48;94298.38;4938677;28;7164;-58
2022/06/15 04:32:08;;;;;;;;;;;;;;;28.16;38.48;94302.44;4956502;28;7249;-58
2022/06/15 04:34:37;;;;;;;;;;;;;;;28.12;38.55;94293.72;4977577;28;9168;-57
2022/06/15 04:37:14;;;;;;;;;;;;;;;28.13;38.63;94295.19;4973209;28;7360;-58
2022/06/15 04:39:53;;;;;;;;;;;;;;;28.13;38.62;94301.47;4990777;28;7440;-57
2022/06/15 04:42:28;;;;;;;;;;;;;;;28.15;38.68;94309.22;4979236;28;7209;-58
2022/06/15 04:44:57;;;;;;;;;;;;;;;28.13;38.33;94306.25;4962254;28;8814;-57
2022/06/15 04:47:32;;;;;;;;;;;;;;;28.12;38.58;94307.53;4989437;28;7320;-58
2022/06/15 04:49:59;;;;;;;;;;;;;;;28.12;38.78;94315.81;4988186;28;7117;-58
2022/06/15 04:52:34;;;;;;;;;;;;;;;28.09;39.33;94294.75;4974368;28;6984;-57
2022/06/15 04:55:37;;;;;;;;;;;;;;;28.03;39.06;94303.16;4992709;28;9090;-58
2022/06/15 04:58:04;;;;;;;;;;;;;;;28.03;38.97;94308.69;4946464;28;7188;-58
2022/06/15 05:00:42;;;;;;;;;;;;;;;28.05;39.13;94302.63;4938581;28;7242;-58
2022/06/15 05:03:24;;;;;;;;;;;;;;;28.08;39.05;94304.31;4955150;28;9281;-57
2022/06/15 05:06:23;;;;;;;;;;;;;;;28.08;38.98;94307.06;4973797;28;9206;-58
2022/06/15 05:09:22;;;;;;;;;;;;;;;28.08;38.97;94315.38;4994236;28;9405;-58
2022/06/15 05:11:48;;;;;;;;;;;;;;;28.08;38.52;94315.38;4916625;29;8866;-58
2022/06/15 05:14:14;;;;;;;;;;;;;;;28.07;38.96;94316.66;4928442;29;8982;-58
2022/06/15 05:16:45;;;;;;;;;;;;;;;28.05;38.80;94313.69;4929324;29;9122;-58
2022/06/15 05:19:29;;;;;;;;;;;;;;;28.04;39.08;94314.94;4931434;29;8241;-58
2022/06/15 05:22:03;;;;;;;;;;;;;;;28.01;39.26;94316.78;4919163;29;8799;-58
2022/06/15 05:24:47;;;;;;;;;;;;;;;27.97;39.31;94315.56;4919013;29;7119;-58
2022/06/15 05:27:15;;;;;;;;;;;;;;;27.97;38.85;94323.84;4918149;29;7038;-58
2022/06/15 05:29:42;;;;;;;;;;;;;;;27.96;39.19;94325.13;4932516;29;7206;-58
2022/06/15 05:32:09;;;;;;;;;;;;;;;27.97;39.03;94315.56;4936977;28;7141;-58
2022/06/15 05:34:38;;;;;;;;;;;;;;;28.02;39.10;94325.78;4945540;28;7255;-58
2022/06/15 05:37:23;;;;;;;;;;;;;;;28.03;38.94;94324.53;4935494;28;9414;-58
2022/06/15 05:40:26;;;;;;;;;;;;;;;28.04;39.00;94328.75;4943800;28;7242;-58
2022/06/15 05:42:52;;;;;;;;;;;;;;;28.04;38.90;94331.53;4933941;29;7239;-58
2022/06/15 05:45:19;;;;;;;;;;;;;;;28.02;39.17;94334.09;4914271;29;8789;-58
2022/06/15 05:47:46;;;;;;;;;;;;;;;28.01;38.95;94332.59;4949627;28;6989;-58
2022/06/15 05:50:13;;;;;;;;;;;;;;;28.01;39.17;94330.59;4957938;28;9430;-58
2022/06/15 05:52:43;;;;;;;;;;;;;;;28.01;39.02;94332.59;4969991;28;7163;-58
2022/06/15 05:55:10;;;;;;;;;;;;;;;28.01;38.94;94340.91;4974847;28;9096;-58
2022/06/15 05:57:43;;;;;;;;;;;;;;;27.99;39.13;94338.66;4982048;28;8929;-58
2022/06/15 06:00:12;;;;;;;;;;;;;;;27.98;39.19;94328.13;4974489;28;6965;-58
2022/06/15 06:02:40;;;;;;;;;;;;;;;27.99;38.88;94340.69;4966073;28;7054;-58
2022/06/15 06:05:54;;;;;;;;;;;;;;;27.98;39.01;94337.16;4970957;28;7058;-58
2022/06/15 06:08:34;;;;;;;;;;;;;;;27.96;38.67;94342.44;4991662;28;7247;-58
2022/06/15 06:10:59;;;;;;;;;;;;;;;27.98;38.61;94341.94;4971626;28;9035;-58
2022/06/15 06:13:25;;;;;;;;;;;;;;;27.96;39.01;94341.69;4991435;28;7046;-58
2022/06/15 06:15:52;;;;;;;;;;;;;;;27.95;38.70;94343.00;4978488;28;9163;-58
2022/06/15 06:18:36;;;;;;;;;;;;;;;27.95;38.80;94337.47;5013663;28;8935;-58
2022/06/15 06:21:07;;;;;;;;;;;;;;;27.96;39.05;94341.69;5001829;28;7243;-58
2022/06/15 06:23:46;;;;;;;;;;;;;;;27.96;38.73;94341.69;5030715;28;7191;-58
2022/06/15 06:26:42;;;;;;;;;;;;;;;27.95;38.80;94346.47;5012204;28;9074;-58
2022/06/15 06:29:19;;;;;;;;;;;;;;;27.94;39.04;94339.47;4999100;28;7396;-58
2022/06/15 06:31:47;;;;;;;;;;;;;;;27.97;38.80;94348.72;5016802;28;7428;-58
2022/06/15 06:34:34;;;;;;;;;;;;;;;27.97;38.59;94340.44;5011731;28;7246;-58
2022/06/15 06:37:15;;;;;;;;;;;;;;;27.91;39.35;94342.53;5024943;28;6856;-58
2022/06/15 06:39:43;;;;;;;;;;;;;;;27.95;38.82;94343.00;5027276;28;9569;-58
2022/06/15 06:42:12;;;;;;;;;;;;;;;28.24;38.64;94350.31;5013567;28;9165;-58
2022/06/15 06:44:48;;;;;;;;;;;;;;;28.35;38.57;94345.31;5029949;28;9041;-58
2022/06/15 06:47:30;;;;;;;;;;;;;;;28.39;38.42;94347.75;5013092;28;7351;-58
2022/06/15 06:50:06;;;;;;;;;;;;;;;28.36;38.50;94352.34;5011144;28;8931;-58
2022/06/15 06:52:42;;;;;;;;;;;;;;;28.33;38.19;94347.13;5008383;28;7010;-58
2022/06/15 06:55:08;;;;;;;;;;;;;;;28.30;38.55;94348.19;5017701;28;7022;-58
2022/06/15 06:58:10;;;;;;;;;;;;;;;28.27;38.60;94357.56;5020802;28;9570;-58
2022/06/15 07:00:39;;;;;;;;;;;;;;;28.25;38.72;94357.34;4989271;28;9327;-58
2022/06/15 07:03:16;;;;;;;;;;;;;;;28.23;38.28;94351.59;5006734;28;9085;-58
2022/06/15 07:06:03;;;;;;;;;;;;;;;28.23;38.35;94359.88;4982110;28;9272;-58
2022/06/15 07:08:32;;;;;;;;;;;;;;;28.21;38.60;94362.41;5014968;28;7275;-58
2022/06/15 07:10:59;;;;;;;;;;;;;;;28.18;38.28;94364.25;5005347;28;9075;-58
2022/06/15 07:13:25;;;;;;;;;;;;;;;28.16;38.54;94357.75;5002796;28;7661;-58
2022/06/15 07:15:52;;;;;;;;;;;;;;;28.15;39.01;94365.28;5010264;28;8988;-58
2022/06/15 07:18:36;;;;;;;;;;;;;;;28.15;38.91;94370.81;5025071;28;9168;-58
2022/06/15 07:21:19;;;;;;;;;;;;;;;28.12;39.14;94366.31;5009585;28;7239;-58
2022/06/15 07:24:10;;;;;;;;;;;;;;;28.12;38.84;94369.09;5001724;28;9213;-58
2022/06/15 07:26:47;;;;;;;;;;;;;;;28.10;38.90;94371.63;5023417;28;7195;-58
2022/06/15 07:29:21;;;;;;;;;;;;;;;28.10;38.89;94362.63;5010222;28;7264;-58
2022/06/15 07:31:54;;;;;;;;;;;;;;;28.12;38.68;94363.56;5013983;28;7386;-58
2022/06/15 07:34:21;;;;;;;;;;;;;;;28.12;39.54;94368.38;5012848;28;7623;-58
2022/06/15 07:36:54;;;;;;;;;;;;;;;28.12;39.19;94373.91;5053751;28;6964;-58
2022/06/15 07:39:27;;;;;;;;;;;;;;;28.10;39.12;94362.63;5044483;28;7227;-58
2022/06/15 07:41:56;;;;;;;;;;;;;;;28.10;39.20;94381.97;5048207;28;7227;-58
2022/06/15 07:44:39;;;;;;;;;;;;;;;28.08;39.27;94374.19;5051065;28;8887;-58
2022/06/15 07:50:10;;;;;;;;;;;;;;;28.06;39.53;94382.28;5062060;28;9123;-58
2022/06/15 07:52:50;;;;;;;;;;;;;;;28.06;39.58;94367.69;5058111;28;7776;-58
2022/06/15 07:55:27;;;;;;;;;;;;;;;28.05;39.85;94377.28;5054436;28;8574;-58
2022/06/15 07:57:54;;;;;;;;;;;;;;;28.07;39.56;94383.03;5053175;28;7275;-58
2022/06/15 08:00:28;;;;;;;;;;;;;;;28.08;39.43;94381.72;5052139;28;6988;-58
2022/06/15 08:02:58;;;;;;;;;;;;;;;28.08;39.75;94384.50;5068228;28;7280;-58
2022/06/15 08:05:29;;;;;;;;;;;;;;;28.10;39.69;94390.28;5050452;28;7309;-58
2022/06/15 08:08:01;;;;;;;;;;;;;;;28.12;39.91;94388.44;5046397;28;9038;-58
2022/06/15 08:10:30;;;;;;;;;;;;;;;28.12;39.80;94387.72;5034726;28;7009;-58
2022/06/15 08:12:56;;;;;;;;;;;;;;;28.11;39.76;94386.97;5049430;28;7589;-58
2022/06/15 08:15:22;;;;;;;;;;;;;;;28.10;39.73;94387.50;5061128;28;7590;-58
2022/06/15 08:18:06;;;;;;;;;;;;;;;28.12;40.39;94396.03;5054700;28;7216;-58
2022/06/15 08:20:38;;;;;;;;;;;;;;;28.10;40.39;94390.28;5054861;28;8702;-58
2022/06/15 08:23:09;;;;;;;;;;;;;;;28.09;39.98;94386.75;5059530;28;9050;-58
2022/06/15 08:25:40;;;;;;;;;;;;;;;28.10;40.33;94384.75;5052603;28;8809;-58
2022/06/15 08:28:08;;;;;;;;;;;;;;;28.09;40.27;94388.78;5053937;28;9357;-58
2022/06/15 08:30:36;;;;;;;;;;;;;;;28.10;40.29;94384.75;5045623;28;6972;-58
2022/06/15 08:33:08;;;;;;;;;;;;;;;28.11;40.13;94391.75;5050979;28;7468;-58
2022/06/15 08:35:38;;;;;;;;;;;;;;;28.13;40.17;94398.25;5046471;28;7755;-58
2022/06/15 08:38:09;;;;;;;;;;;;;;;28.14;40.13;94396.25;5045175;28;7080;-58
2022/06/15 08:40:57;;;;;;;;;;;;;;;28.15;40.20;94392.19;5067789;28;7155;-58
2022/06/15 08:43:57;;;;;;;;;;;;;;;28.13;40.21;94394.72;5053017;28;7348;-58
2022/06/15 08:47:00;;;;;;;;;;;;;;;28.13;40.01;94401.00;5067581;28;7239;-57
2022/06/15 08:49:45;;;;;;;;;;;;;;;28.15;40.44;94395.69;5040946;28;7231;-57
2022/06/15 08:52:21;;;;;;;;;;;;;;;28.15;40.13;94394.94;5044436;28;7918;-57
2022/06/15 08:54:51;;;;;;;;;;;;;;;28.13;39.93;94395.47;5065410;28;7279;-57
2022/06/15 08:57:48;;;;;;;;;;;;;;;28.14;40.26;94393.47;5053054;28;8826;-57
2022/06/15 09:00:33;;;;;;;;;;;;;;;28.16;40.06;94388.16;5052998;28;8078;-57
2022/06/15 09:03:19;;;;;;;;;;;;;;;28.17;40.51;94400.69;5052419;28;7274;-58
2022/06/15 09:06:11;;;;;;;;;;;;;;;28.18;40.12;94396.66;5044110;28;7674;-58
2022/06/15 09:09:05;;;;;;;;;;;;;;;28.18;40.17;94397.41;5057552;28;7344;-57
2022/06/15 09:11:50;;;;;;;;;;;;;;;28.18;39.96;94394.66;5056323;28;7388;-57
2022/06/15 09:14:38;;;;;;;;;;;;;;;28.17;39.89;94395.91;5041387;28;8953;-57
2022/06/15 09:17:15;;;;;;;;;;;;;;;28.18;40.34;94391.13;5034027;28;7492;-57
2022/06/15 09:20:00;;;;;;;;;;;;;;;28.19;39.65;94400.91;5051962;28;7051;-57
2022/06/15 09:22:47;;;;;;;;;;;;;;;28.17;39.39;94400.69;5036599;28;7245;-57
2022/06/15 09:25:19;;;;;;;;;;;;;;;28.20;39.36;94405.19;5055661;28;7603;-57
2022/06/15 09:27:49;;;;;;;;;;;;;;;28.18;39.12;94405.72;5056962;28;8897;-57
2022/06/15 09:30:31;;;;;;;;;;;;;;;28.19;38.61;94409.22;5059533;28;7246;-57
2022/06/15 09:33:21;;;;;;;;;;;;;;;28.19;38.47;94409.97;5043200;28;9222;-58
2022/06/15 09:36:05;;;;;;;;;;;;;;;28.20;38.19;94402.41;5056847;28;7146;-58
2022/06/15 09:38:33;;;;;;;;;;;;;;;28.20;38.08;94403.16;5066974;28;7269;-57
2022/06/15 09:41:11;;;;;;;;;;;;;;;28.21;38.06;94395.59;5052579;28;9091;-57
2022/06/15 09:44:06;;;;;;;;;;;;;;;28.20;37.44;94405.94;5051192;28;7221;-57
2022/06/15 09:46:53;;;;;;;;;;;;;;;28.20;37.24;94399.66;5047600;28;7928;-57
2022/06/15 09:50:12;;;;;;;;;;;;;;;28.20;37.25;94399.66;5052864;28;7280;-58
2022/06/15 09:53:02;;;;;;;;;;;;;;;28.19;37.05;94401.66;4968554;28;7004;-58
2022/06/15 09:55:45;;;;;;;;;;;;;;;28.19;36.36;94398.91;4953391;28;9162;-58
2022/06/15 09:58:25;;;;;;;;;;;;;;;28.19;36.46;94398.16;4956456;28;8876;-58
2022/06/15 10:00:53;;;;;;;;;;;;;;;28.19;36.28;94398.16;4978010;28;9641;-58
2022/06/15 10:03:46;;;;;;;;;;;;;;;28.19;36.44;94400.91;4986212;28;9245;-58
2022/06/15 10:06:27;;;;;;;;;;;;;;;28.23;36.46;94401.38;4970762;28;9255;-57
2022/06/15 10:08:58;;;;;;;;;;;;;;;28.22;36.37;94406.16;4970053;28;9352;-58
2022/06/15 10:11:34;;;;;;;;;;;;;;;28.25;36.35;94401.59;4972369;28;8756;-58
2022/06/15 10:14:18;;;;;;;;;;;;;;;28.25;36.42;94401.59;4963807;28;9101;-58
2022/06/15 10:17:01;;;;;;;;;;;;;;;28.26;36.27;94403.06;4991635;28;9186;-58
2022/06/15 10:19:34;;;;;;;;;;;;;;;28.25;35.20;94404.34;4981980;28;7152;-58
2022/06/15 10:22:27;;;;;;;;;;;;;;;28.25;35.07;94401.59;4960086;28;9352;-58
2022/06/15 10:25:06;;;;;;;;;;;;;;;28.26;35.84;94397.53;4952943;28;7429;-58
2022/06/15 10:27:40;;;;;;;;;;;;;;;28.25;35.44;94396.78;4993117;28;8825;-58
2022/06/15 10:30:23;;;;;;;;;;;;;;;28.27;35.29;94404.56;5047131;28;7353;-58
2022/06/15 10:33:12;;;;;;;;;;;;;;;28.28;35.95;94389.44;5051505;28;9436;-58
2022/06/15 10:35:39;;;;;;;;;;;;;;;28.29;35.24;94390.97;5039296;28;7307;-58
2022/06/15 10:38:15;;;;;;;;;;;;;;;28.30;35.40;94398.72;5031932;28;9446;-58
2022/06/15 10:43:50;;;;;;;;;;;;;;;28.29;34.05;94390.97;5059483;28;8833;-58
2022/06/15 10:46:20;;;;;;;;;;;;;;;28.31;34.17;94382.88;5051957;28;7913;-58
2022/06/15 10:48:52;;;;;;;;;;;;;;;28.31;34.44;94383.63;5050221;28;7233;-58
2022/06/15 10:51:39;;;;;;;;;;;;;;;28.33;33.44;94374.78;5047068;28;7259;-58
2022/06/15 10:54:30;;;;;;;;;;;;;;;28.34;34.40;94376.25;5049601;28;9051;-58
2022/06/15 11:04:08;;;;;;;;;;;;;;;28.35;34.90;94378.53;4991098;28;7220;-58
2022/06/15 11:06:44;;;;;;;;;;;;;;;28.36;34.57;94363.41;4973548;28;9159;-58
2022/06/15 11:09:54;;;;;;;;;;;;;;;28.40;35.18;94365.13;4985713;28;9040;-58
2022/06/15 11:12:37;;;;;;;;;;;;;;;28.41;34.98;94367.34;4922417;29;9128;-58
2022/06/15 11:15:17;;;;;;;;;;;;;;;28.42;35.29;94371.63;4913947;29;7214;-58
2022/06/15 11:18:33;;;;;;;;;;;;;;;28.40;34.36;94368.63;4913961;29;7253;-58
2022/06/15 11:21:45;;;;;;;;;;;;;;;28.40;34.40;94365.13;4947473;28;7137;-58
2022/06/15 11:24:42;;;;;;;;;;;;;;;28.42;34.12;94376.41;4912105;29;8669;-58
2022/06/15 11:27:42;;;;;;;;;;;;;;;28.40;34.72;94363.09;5104470;27;1346399;-56
2022/06/15 11:30:27;;;;;;;;;;;;;;;28.45;34.51;94373.31;5111766;28;9119;-56
2022/06/15 11:33:01;;;;;;;;;;;;;;;28.45;33.90;94370.53;5096252;28;7326;-56
2022/06/15 11:35:36;;;;;;;;;;;;;;;28.46;35.08;94368.53;5109239;28;9415;-56
2022/06/15 11:38:34;;;;;;;;;;;;;;;28.50;35.12;94371.72;5094862;28;7302;-56
2022/06/15 11:41:51;;;;;;;;;;;;;;;28.54;35.30;94369.38;5111661;28;8516;-56
2022/06/15 11:44:30;;;;;;;;;;;;;;;28.54;35.41;94363.84;5072700;28;7209;-56
2022/06/15 11:47:20;;;;;;;;;;;;;;;28.53;34.70;94370.66;5050758;28;8720;-56
2022/06/15 11:50:18;;;;;;;;;;;;;;;28.51;34.69;94373.22;5075722;28;9407;-56
2022/06/15 11:53:21;;;;;;;;;;;;;;;28.51;35.36;94367.69;5067322;28;7421;-56
2022/06/15 11:56:03;;;;;;;;;;;;;;;28.54;35.22;94367.34;5050081;28;7781;-56
2022/06/15 11:59:13;;;;;;;;;;;;;;;28.52;35.16;94360.84;5048391;28;9376;-56
2022/06/15 12:01:54;;;;;;;;;;;;;;;28.51;35.21;94362.91;5010367;28;7276;-56
2022/06/15 12:04:32;;;;;;;;;;;;;;;28.50;34.95;94360.66;5026519;28;7044;-56
2022/06/15 12:07:04;;;;;;;;;;;;;;;28.52;35.44;94361.63;5008858;28;7069;-56
2022/06/15 12:09:59;;;;;;;;;;;;;;;28.57;36.11;94354.47;5010443;28;7442;-56
2022/06/15 12:12:38;;;;;;;;;;;;;;;28.60;35.87;94356.22;4956660;28;7658;-56
2022/06/15 12:15:26;;;;;;;;;;;;;;;28.63;35.36;94355.16;4949456;28;7595;-56
2022/06/15 12:18:19;;;;;;;;;;;;;;;28.61;36.10;94350.16;4953695;28;7213;-56
2022/06/15 12:21:10;;;;;;;;;;;;;;;28.61;36.07;94355.69;4967492;28;7775;-56
2022/06/15 12:24:10;;;;;;;;;;;;;;;28.60;36.45;94343.13;4983385;28;8915;-56
2022/06/15 12:27:04;;;;;;;;;;;;;;;28.65;36.22;94333.97;4962926;28;7146;-56
2022/06/15 12:29:51;;;;;;;;;;;;;;;28.67;36.63;94348.03;4963684;28;7076;-56
2022/06/15 12:32:41;;;;;;;;;;;;;;;28.66;35.90;94345.78;4963742;28;7413;-56
2022/06/15 12:35:21;;;;;;;;;;;;;;;28.67;35.84;94341.72;4976051;28;9470;-56
2022/06/15 12:38:13;;;;;;;;;;;;;;;28.64;35.40;94346.34;5005164;28;8102;-56
2022/06/15 12:40:44;;;;;;;;;;;;;;;28.62;35.54;94348.91;4995381;28;7032;-56
2022/06/15 12:43:49;;;;;;;;;;;;;;;28.65;35.26;94344.28;4996446;28;9589;-56
2022/06/15 12:46:26;;;;;;;;;;;;;;;28.61;35.27;94344.63;4985997;28;7311;-56
2022/06/15 12:49:17;;;;;;;;;;;;;;;28.65;35.43;94344.28;5012024;28;7497;-56
2022/06/15 12:52:12;;;;;;;;;;;;;;;28.65;35.81;94350.56;5088208;28;7165;-56
2022/06/15 12:55:10;;;;;;;;;;;;;;;28.67;35.36;94341.72;5074453;28;7268;-56
2022/06/15 12:58:09;;;;;;;;;;;;;;;28.71;35.49;94340.13;5062776;28;7290;-56
2022/06/15 13:00:54;;;;;;;;;;;;;;;28.74;34.97;94335.56;5077233;28;7325;-56
2022/06/15 13:03:38;;;;;;;;;;;;;;;28.77;34.97;94340.78;5075284;28;8805;-56
2022/06/15 13:06:40;;;;;;;;;;;;;;;28.80;35.16;94328.63;5079246;28;6988;-56
2022/06/15 13:09:24;;;;;;;;;;;;;;;28.78;35.23;94324.91;5093989;28;7204;-56
2022/06/15 13:12:10;;;;;;;;;;;;;;;28.80;35.40;94334.19;5078389;28;7519;-56
2022/06/15 13:14:54;;;;;;;;;;;;;;;28.82;35.59;94326.09;5073342;28;7122;-56
2022/06/15 13:17:27;;;;;;;;;;;;;;;28.86;35.52;94323.72;5075813;28;6968;-56
2022/06/15 13:20:10;;;;;;;;;;;;;;;28.89;35.76;94327.47;5070060;28;7251;-58
2022/06/15 13:22:48;;;;;;;;;;;;;;;28.93;35.68;94328.63;5076780;28;7270;-58
2022/06/15 13:25:21;;;;;;;;;;;;;;;28.92;36.06;94318.09;5090556;28;9173;-58
2022/06/15 13:28:09;;;;;;;;;;;;;;;28.93;35.88;94322.34;5074883;28;9120;-58
2022/06/15 13:30:47;;;;;;;;;;;;;;;28.96;36.03;94324.81;5093607;28;9239;-57
2022/06/15 13:33:16;;;;;;;;;;;;;;;28.97;36.37;94329.03;5087115;28;7443;-57
2022/06/15 13:36:10;;;;;;;;;;;;;;;28.94;36.57;94327.38;5089754;28;7054;-58
2022/06/15 13:38:40;;;;;;;;;;;;;;;28.94;37.03;94330.13;5053441;28;7198;-58
2022/06/15 13:41:25;;;;;;;;;;;;;;;29.03;36.47;94328.94;5081556;28;9392;-58
2022/06/15 13:43:54;;;;;;;;;;;;;;;29.08;36.53;94323.28;5088689;28;7868;-58
2022/06/15 13:46:25;;;;;;;;;;;;;;;29.12;36.54;94320.19;5080641;28;7246;-58
2022/06/15 13:49:36;;;;;;;;;;;;;;;29.15;36.63;94321.13;5091525;28;6913;-58
2022/06/15 13:52:20;;;;;;;;;;;;;;;29.09;36.83;94319.25;5052789;28;7374;-57
2022/06/15 13:55:40;;;;;;;;;;;;;;;29.17;36.74;94315.84;5054488;28;7253;-58
2022/06/15 13:58:43;;;;;;;;;;;;;;;29.23;36.62;94308.16;4994127;28;9379;-58
2022/06/15 14:01:57;;;;;;;;;;;;;;;29.26;36.55;94307.81;5010703;28;9174;-58
2022/06/15 14:04:43;;;;;;;;;;;;;;;29.30;36.01;94297.16;4992705;28;7224;-58
2022/06/15 14:07:31;;;;;;;;;;;;;;;29.30;36.33;94305.47;4993184;28;7109;-57
2022/06/15 14:10:16;;;;;;;;;;;;;;;29.34;36.38;94302.38;4994105;28;9164;-58
2022/06/15 14:13:13;;;;;;;;;;;;;;;29.36;36.66;94300.53;4997416;28;7065;-57
2022/06/15 14:16:06;;;;;;;;;;;;;;;29.44;36.50;94306.16;4991465;28;8215;-58
2022/06/15 14:18:40;;;;;;;;;;;;;;;29.41;36.73;94296.16;5006461;28;7331;-58
2022/06/15 14:21:37;;;;;;;;;;;;;;;29.47;36.69;94302.31;4974112;28;7302;-58
2022/06/15 14:24:24;;;;;;;;;;;;;;;29.49;36.53;94294.22;4991649;28;9087;-58